• Join FlightAware (Why Join?)
  • Login
  • US Flag 
01:11PM EDT


 

Airport Tracker/Info


-or-


 

Live Flight TrackerFlight Track Log ✈ N717AN ✈ 30-Apr-2013 ✈ KJFK - SBGR / GRU

Flight Track Log - Related Links

Times and Time Zones

All times are in EDT time to prevent confusion due to time zone crossing. See the N717AN flight status page for this flight to view local times or setup timezone preferences in your user account.

Time Position Orientation Groundspeed Altitude Reporting Facility
EDT Latitude Longitude Course Direction KTS MPH feet Rate Location/Type
10:46PM 40.6270 -73.7700 119° Southeast 193 222 500  Level FlightAware
10:46PM 40.6180 -73.7580 135° Southeast 195 224 1,200 2,160 Climbing FlightAware
10:47PM 40.6050 -73.7470 147° Southeast 207 238 1,600 1,200 Climbing FlightAware
10:47PM 40.5770 -73.7320 158° South 239 275 2,100 1,380 Climbing FlightAware
10:48PM 40.5500 -73.7150 154° Southeast 250 288 2,900 2,100 Climbing FlightAware
10:48PM 40.5390 -73.7000 134° Southeast 250 288 3,500 2,400 Climbing FlightAware
10:48PM 40.5230 -73.6650 121° Southeast 256 295 4,500 2,460 Climbing FlightAware
10:49PM 40.5037 -73.6210 120° Southeast 261 300 5,800 2,160 Climbing FlightAware ADS-B
10:49PM 40.4944 -73.6000 120° Southeast 267 307 6,200 1,980 Climbing FlightAware ADS-B
10:49PM 40.4846 -73.5786 121° Southeast 270 311 6,800 2,100 Climbing FlightAware ADS-B
10:50PM 40.4741 -73.5569 122° Southeast 274 315 7,300 2,100 Climbing FlightAware ADS-B
10:50PM 40.4639 -73.5353 122° Southeast 275 316 7,900 2,100 Climbing FlightAware ADS-B
10:50PM 40.4534 -73.5117 120° Southeast 282 325 8,400 1,860 Climbing FlightAware ADS-B
10:50PM 40.4424 -73.4889 122° Southeast 285 328 8,900 2,040 Climbing FlightAware ADS-B
10:51PM 40.4312 -73.4658 122° Southeast 288 331 9,500 2,040 Climbing FlightAware ADS-B
10:51PM 40.4202 -73.4415 121° Southeast 292 336 10,000 1,380 Climbing FlightAware ADS-B
10:51PM 40.3985 -73.3941 121° Southeast 316 364 10,600 1,560 Climbing FlightAware ADS-B
10:52PM 40.3744 -73.3434 122° Southeast 328 377 11,600 2,160 Climbing FlightAware ADS-B
10:52PM 40.3501 -73.2916 122° Southeast 335 386 12,800 1,980 Climbing FlightAware ADS-B
10:53PM 40.3247 -73.2390 122° Southeast 350 403 13,600 1,500 Climbing FlightAware ADS-B
10:53PM 40.3144 -73.2214 128° Southeast 361 415 13,800 1,440 Climbing FlightAware ADS-B
10:53PM 40.2890 -73.1963 143° Southeast 374 430 14,300 2,040 Climbing FlightAware ADS-B
10:54PM 40.2678 -73.1855 159° South 376 433 14,900 2,100 Climbing FlightAware ADS-B
10:54PM 40.2144 -73.1649 164° South 385 443 15,900 1,800 Climbing FlightAware ADS-B
10:55PM 40.1744 -73.1508 165° South 396 456 16,600 2,220 Climbing FlightAware ADS-B
10:55PM 40.1201 -73.1323 165° South 395 455 17,900 1,860 Climbing FlightAware ADS-B
10:56PM 40.0648 -73.1132 165° South 411 473 18,500 1,740 Climbing FlightAware ADS-B
10:56PM 40.0046 -73.0917 165° South 411 473 19,800 2,040 Climbing FlightAware ADS-B
10:57PM 39.9479 -73.0718 165° South 419 482 20,700 1,740 Climbing FlightAware ADS-B
10:57PM 39.8905 -73.0519 165° South 425 489 21,600 1,680 Climbing FlightAware ADS-B
10:58PM 39.8273 -73.0300 165° South 431 496 22,500 1,620 Climbing FlightAware ADS-B
10:58PM 39.7649 -73.0084 165° South 435 501 23,400 1,620 Climbing FlightAware ADS-B
10:59PM 39.6991 -72.9857 165° South 439 505 24,300 1,500 Climbing FlightAware ADS-B
10:59PM 39.6323 -72.9663 167° South 443 510 25,100 1,380 Climbing FlightAware ADS-B
11:00PM 39.5702 -72.9545 172° South 449 517 25,800 1,320 Climbing FlightAware ADS-B
11:00PM 39.5043 -72.9413 171° South 455 524 26,500 1,200 Climbing FlightAware ADS-B
11:01PM 39.4400 -72.9274 171° South 459 528 27,100 1,320 Climbing FlightAware ADS-B
11:01PM 39.3743 -72.9127 170° South 461 531 27,900 1,260 Climbing FlightAware ADS-B
11:02PM 39.3107 -72.8985 170° South 465 535 28,400 1,080 Climbing FlightAware ADS-B
11:02PM 39.2472 -72.8841 170° South 469 540 29,000 1,140 Climbing FlightAware ADS-B
11:03PM 39.1785 -72.8700 171° South 473 544 29,600 1,140 Climbing FlightAware ADS-B
11:03PM 39.1133 -72.8570 171° South 476 548 30,200 1,080 Climbing FlightAware ADS-B
11:04PM 39.0476 -72.8437 171° South 479 551 30,700 720 Climbing FlightAware ADS-B
11:04PM 38.9762 -72.8293 171° South 485 558 31,000 240 Climbing FlightAware ADS-B
11:05PM 38.9084 -72.8157 171° South 493 567 31,000  Level FlightAware ADS-B
11:05PM 38.8351 -72.8008 171° South 494 568 31,000  Level FlightAware ADS-B
11:06PM 38.7655 -72.7868 171° South 495 570 31,000  Level FlightAware ADS-B
11:06PM 38.6973 -72.7731 171° South 493 567 31,000  Level FlightAware ADS-B
11:07PM 38.6299 -72.7595 171° South 493 567 31,000  Level FlightAware ADS-B
11:07PM 38.5620 -72.7460 171° South 494 568 31,000  Level FlightAware ADS-B
11:08PM 38.4667 -72.7270 171° South 493 567 31,000  Level FlightAware ADS-B
11:09PM 38.3970 -72.7130 171° South 485 558 31,000  Level FlightAware
11:10PM 38.2960 -72.6930 171° South 485 558 31,000  Level FlightAware
11:10PM 38.2020 -72.6740 171° South 490 564 31,000  Level FlightAware
11:11PM 38.0870 -72.6400 167° South 491 565 31,000  Level FlightAware
11:12PM 37.9541 -72.5777 160° South 497 572 31,000  Level FlightAware ADS-B
11:13PM 37.8770 -72.5420 160° South 497 572 31,000  Level FlightAware
11:13PM 37.8317 -72.5222 161° South 497 572 31,000  Level FlightAware ADS-B
11:14PM 37.7494 -72.4852 160° South 499 574 31,000 -60 Level FlightAware ADS-B
11:15PM 37.6122 -72.4528 160° South 490 564 30,900  Descending New York Center
11:16PM 37.4731 -72.4258 171° South 479 551 31,000  Climbing New York Center
11:17PM 37.3397 -72.4019 172° South 493 567 30,900  Descending New York Center
11:18PM 37.2003 -72.3858 175° South 493 567 31,000  Climbing New York Center
11:19PM 37.0725 -72.4222 193° South 488 562 30,900 -60 Descending New York Center
11:20PM 36.9428 -72.4531 191° South 481 554 30,900  Level New York Center
11:21PM 36.8086 -72.4914 193° South 482 555 31,000  Climbing New York Center
11:22PM 36.6792 -72.5014 184° South 482 555 30,900  Descending New York Center
11:24PM 36.4111 -72.4256 167° South 488 562 31,000  Climbing New York Center
11:25PM 36.2733 -72.4250 180° South 488 562 30,900  Descending New York Center
11:26PM 36.1358 -72.4247 180° South 488 562 31,000  Climbing New York Center
11:27PM 36.0064 -72.4192 178° South 488 562 31,000  Level New York Center
11:28PM 35.8708 -72.4214 181° South 481 554 31,000 -60 Level New York Center
11:29PM 35.7394 -72.4186 179° South 481 554 30,900 -60 Descending New York Center
11:30PM 35.6039 -72.4208 181° South 476 548 30,900  Level New York Center
11:31PM 35.4994 -72.4158 178° South 476 548 31,000  Climbing New York Center
11:32PM 35.3431 -72.4125 179° South 476 548 31,000 -60 Level New York Center
11:33PM 35.2075 -72.4122 180° South 481 554 30,900  Descending New York Center
11:35PM 35.0500 -72.4167 175° South 486 559 31,000  Climbing New York Oceanic (ODAPS)
11:35PM 34.8667 -72.4000 175° South 484 557 31,000  Level New York Oceanic (ODAPS)
11:41PM 34.1167 -72.3144 175° South 486 559 31,000  Level FlightAware Transoceanic
11:42PM 33.9833 -72.3000 167° South 484 557 31,000  Level FlightAware Transoceanic
11:42PM 33.9833 -72.3000 167° South 480 552 31,000  Level New York Oceanic (ODAPS)
11:43PM 33.8497 -72.2634 167° South 484 557 31,000  Level FlightAware Transoceanic
11:44PM 33.7161 -72.2270 167° South 484 557 31,000  Level FlightAware Transoceanic
11:45PM 33.5825 -72.1906 167° South 484 557 31,000  Level FlightAware Transoceanic
11:46PM 33.4489 -72.1544 167° South 484 557 31,000  Level FlightAware Transoceanic
11:47PM 33.3153 -72.1183 167° South 484 557 31,000  Level FlightAware Transoceanic
11:48PM 33.1816 -72.0823 167° South 480 552 31,000  Level FlightAware Transoceanic
11:49PM 33.0480 -72.0464 167° South 480 552 31,000  Level FlightAware Transoceanic
11:50PM 32.9143 -72.0106 167° South 480 552 31,000  Level FlightAware Transoceanic
11:51PM 32.7806 -71.9749 167° South 480 552 31,000  Level FlightAware Transoceanic
11:52PM 32.6469 -71.9393 167° South 480 552 31,000  Level FlightAware Transoceanic
11:53PM 32.5133 -71.9038 167° South 480 552 31,000  Level FlightAware Transoceanic
11:54PM 32.3796 -71.8685 167° South 480 552 31,000  Level FlightAware Transoceanic
11:55PM 32.2458 -71.8332 167° South 480 552 31,000  Level FlightAware Transoceanic
11:56PM 32.1121 -71.7981 167° South 480 552 31,000  Level FlightAware Transoceanic
11:57PM 31.9784 -71.7630 167° South 480 552 31,000 600 Level FlightAware Transoceanic
11:57PM 32.0500 -71.7833 167° South 490 564 32,000  Climbing New York Oceanic (ODAPS)
11:58PM 31.8446 -71.7281 168° South 480 552 31,000 -780 Descending FlightAware Transoceanic
11:59PM 31.7109 -71.6932 168° South 480 552 31,000 840 Level FlightAware Transoceanic
11:59PM 31.9667 -71.7500 168° South 497 572 32,000  Climbing New York Oceanic (ODAPS)
12:00AM 31.5771 -71.6584 168° South 480 552 31,000 -540 Descending FlightAware Transoceanic
12:01AM 31.4433 -71.6238 168° South 480 552 31,000  Level FlightAware Transoceanic
12:02AM 31.3096 -71.5892 168° South 480 552 31,000 480 Level FlightAware Transoceanic
12:03AM 31.2630 -71.5784 168° South 490 564 32,000 480 Climbing FlightAware Transoceanic
12:04AM 31.1318 -71.5446 168° South 490 564 32,000  Level FlightAware Transoceanic
12:05AM 31.0338 -71.5115 168° South 497 572 32,000  Level FlightAware Transoceanic
12:05AM 31.3167 -71.5833 168° South 492 566 32,000  Level New York Oceanic (ODAPS)
12:06AM 30.9005 -71.4778 168° South 497 572 32,000  Level FlightAware Transoceanic
12:07AM 30.7672 -71.4442 168° South 497 572 32,000  Level FlightAware Transoceanic
12:08AM 30.6339 -71.4107 168° South 497 572 32,000  Level FlightAware Transoceanic
12:09AM 30.5006 -71.3773 168° South 497 572 32,000  Level FlightAware Transoceanic
12:10AM 30.3672 -71.3440 168° South 497 572 32,000  Level FlightAware Transoceanic
12:11AM 30.2995 -71.3271 168° South 492 566 32,000  Level FlightAware Transoceanic
12:12AM 30.1723 -71.2955 168° South 492 566 32,000  Level FlightAware Transoceanic
12:13AM 30.0451 -71.2639 168° South 492 566 32,000  Level FlightAware Transoceanic
12:14AM 29.9179 -71.2324 168° South 492 566 32,000  Level FlightAware Transoceanic
12:15AM 29.7907 -71.2010 168° South 492 566 32,000  Level FlightAware Transoceanic
12:16AM 29.6635 -71.1697 168° South 492 566 32,000  Level FlightAware Transoceanic
12:17AM 29.5362 -71.1384 168° South 492 566 32,000  Level FlightAware Transoceanic
12:18AM 29.4090 -71.1072 168° South 492 566 32,000  Level FlightAware Transoceanic
12:18AM 29.4667 -71.1167 168° South 499 574 32,000  Level New York Oceanic (ODAPS)
12:19AM 29.2818 -71.0761 168° South 492 566 32,000  Level FlightAware Transoceanic
12:20AM 29.1545 -71.0451 168° South 492 566 32,000  Level FlightAware Transoceanic
12:21AM 29.0273 -71.0142 168° South 492 566 32,000  Level FlightAware Transoceanic
12:22AM 28.9000 -70.9833 168° South 492 566 32,000  Level FlightAware Transoceanic
12:22AM 28.8500 -70.9667 168° South 506 582 32,000  Level New York Oceanic (ODAPS)
12:22AM 28.8500 -70.9667 168° South 507 583 32,000  Level New York Oceanic (ODAPS)
12:23AM 28.7608 -70.9489 168° South 492 566 32,000  Level FlightAware Transoceanic
12:24AM 28.6216 -70.9145 168° South 499 574 32,000  Level FlightAware Transoceanic
12:25AM 28.4825 -70.8801 168° South 499 574 32,000  Level FlightAware Transoceanic
12:26AM 28.3432 -70.8459 168° South 499 574 32,000  Level FlightAware Transoceanic
12:27AM 28.2040 -70.8118 168° South 499 574 32,000  Level FlightAware Transoceanic
12:28AM 28.0648 -70.7778 168° South 499 574 32,000  Level FlightAware Transoceanic
12:29AM 27.8881 -70.7315 168° South 507 583 32,000  Level FlightAware Transoceanic
12:30AM 27.7506 -70.6983 168° South 507 583 32,000  Level FlightAware Transoceanic
12:31AM 27.6131 -70.6651 168° South 507 583 32,000  Level FlightAware Transoceanic
12:31AM 27.6667 -70.6833 168° South 517 595 32,000  Level New York Oceanic (ODAPS)
12:32AM 27.4757 -70.6320 168° South 507 583 32,000  Level FlightAware Transoceanic
12:33AM 27.3382 -70.5990 168° South 507 583 32,000  Level FlightAware Transoceanic
12:34AM 27.2007 -70.5661 168° South 507 583 32,000  Level FlightAware Transoceanic
12:35AM 27.0632 -70.5333 168° South 507 583 32,000  Level FlightAware Transoceanic
12:36AM 26.9257 -70.5005 168° South 507 583 32,000  Level FlightAware Transoceanic
12:37AM 26.8249 -70.4801 168° South 517 595 32,000  Level FlightAware Transoceanic
12:38AM 26.6845 -70.4466 168° South 517 595 32,000  Level FlightAware Transoceanic
12:39AM 26.5442 -70.4131 168° South 517 595 32,000  Level FlightAware Transoceanic
12:40AM 26.4039 -70.3797 168° South 517 595 32,000  Level FlightAware Transoceanic
12:41AM 26.2635 -70.3464 168° South 517 595 32,000  Level FlightAware Transoceanic
12:42AM 26.1231 -70.3131 168° South 517 595 32,000  Level FlightAware Transoceanic
12:43AM 25.9828 -70.2800 168° South 517 595 32,000  Level FlightAware Transoceanic
12:44AM 25.8424 -70.2469 168° South 517 595 32,000  Level FlightAware Transoceanic
12:45AM 25.7020 -70.2139 168° South 517 595 32,000  Level FlightAware Transoceanic
12:45AM 25.7333 -70.2167 168° South 503 579 32,000  Level New York Oceanic (ODAPS)
12:46AM 25.5616 -70.1809 168° South 517 595 32,000  Level FlightAware Transoceanic
12:47AM 25.4212 -70.1481 168° South 517 595 32,000  Level FlightAware Transoceanic
12:48AM 25.2808 -70.1153 168° South 517 595 32,000  Level FlightAware Transoceanic
12:49AM 25.1404 -70.0826 168° South 517 595 32,000  Level FlightAware Transoceanic
12:49AM 25.2011 -70.0911 176° South 478 550 32,000  Level Miami Center
12:50AM 25.0000 -70.0500 176° South 517 595 32,000  Level FlightAware Transoceanic
12:50AM 25.0367 -70.0592 170° South 485 558 32,000  Level Miami Center
12:51AM 24.8654 -70.0405 176° South 503 579 32,000  Level FlightAware Transoceanic
12:51AM 24.8983 -70.0461 175° South 496 571 32,000  Level Miami Center
12:52AM 24.7309 -70.0310 176° South 503 579 32,000 960 Level FlightAware Transoceanic
12:52AM 24.7583 -70.0381 177° South 502 578 33,000  Climbing Miami Center
12:53AM 24.5963 -70.0215 176° South 503 579 32,000  Descending FlightAware Transoceanic
12:53AM 24.6178 -70.0253 175° South 502 578 33,000 780 Climbing Miami Center
12:54AM 24.4825 -70.0303 182° South 502 578 33,000  Level Miami Center
12:55AM 24.3569 -70.0214 176° South 502 578 33,000  Level Miami Center
12:57AM 24.0767 -70.0047 177° South 502 578 33,000  Level Miami Center
12:58AM 23.9361 -69.9919 175° South 507 583 33,000  Level Miami Center
12:59AM 23.8003 -69.9858 178° South 502 578 33,000  Level Miami Center
01:00AM 23.6578 -69.9711 175° South 502 578 33,000  Level Miami Center
01:01AM 23.5197 -69.9603 176° South 495 570 33,000  Level Miami Center
01:02AM 23.3794 -69.9500 176° South 504 580 33,000  Level Miami Center
01:03AM 23.2392 -69.9394 176° South 504 580 33,000  Level Miami Center
01:04AM 23.0947 -69.9269 175° South 510 587 33,000  Level Miami Center
01:05AM 22.9500 -69.9144 175° South 515 593 33,000  Level Miami Center
01:06AM 22.8078 -69.9064 177° South 522 601 33,000  Level Miami Center
01:07AM 22.6611 -69.8917 175° South 522 601 33,000  Level Miami Center
01:08AM 22.5211 -69.8833 177° South 522 601 33,000  Level Miami Center
01:09AM 22.3789 -69.8753 177° South 522 601 33,000  Level Miami Center
01:10AM 22.2367 -69.8628 175° South 522 601 33,000  Level Miami Center
01:11AM 22.0900 -69.8503 175° South 522 601 33,000  Level Miami Center
01:12AM 21.9519 -69.8419 177° South 516 594 33,000  Level Miami Center
01:13AM 21.8097 -69.8294 175° South 523 602 33,000  Level Miami Center
01:14AM 21.6697 -69.8189 176° South 518 596 33,000  Level Miami Center
01:15AM 21.5294 -69.8086 176° South 518 596 33,000  Level Miami Center
01:16AM 21.3914 -69.8003 177° South 513 590 33,000  Level Miami Center
01:17AM 21.2536 -69.7897 176° South 513 590 33,000  Level Miami Center
01:18AM 21.1114 -69.7794 176° South 513 590 33,000  Level Miami Center
01:19AM 20.9731 -69.7644 174° South 508 585 33,000  Level Miami Center
01:20AM 20.8347 -69.7450 173° South 508 585 33,000  Level Miami Center
01:21AM 20.6944 -69.7281 174° South 508 585 33,000  Level Miami Center
01:22AM 20.5433 -69.7069 173° South 508 585 33,000  Level Miami Center
01:23AM 20.4011 -69.6922 174° South 508 585 33,000  Level Miami Center
01:24AM 20.2628 -69.6731 173° South 508 585 33,000  Level Miami Center
01:25AM 20.1222 -69.6539 173° South 508 585 33,000  Level Miami Center
01:26AM 19.9819 -69.6367 173° South 508 585 33,000  Level Miami Center
01:27AM 19.8481 -69.6172 172° South 501 577 33,000  Level Miami Center
01:28AM 19.7078 -69.6003 174° South 507 583 33,000  Level Miami Center
01:30AM 19.4651 -69.5756 175° South  Level FlightAware Approximate
01:37AM 18.4934 -69.4749 172° South  Level FlightAware Approximate
01:38AM 18.3555 -69.4545 172° South  Level FlightAware Approximate
01:39AM 18.2175 -69.4340 172° South  Level FlightAware Approximate
01:40AM 18.0795 -69.4137 172° South  Level FlightAware Approximate
01:41AM 17.9415 -69.3935 172° South  Level FlightAware Approximate
01:42AM 17.8035 -69.3734 172° South  Level FlightAware Approximate
01:43AM 17.6655 -69.3533 172° South  Level FlightAware Approximate
01:44AM 17.5275 -69.3332 172° South  Level FlightAware Approximate
01:45AM 17.3895 -69.3132 172° South  Level FlightAware Approximate
01:46AM 17.2514 -69.2932 172° South  Level FlightAware Approximate
01:47AM 17.1135 -69.2725 172° South  Level FlightAware Approximate
01:48AM 16.9757 -69.2510 172° South  Level FlightAware Approximate
01:49AM 16.8379 -69.2296 172° South  Level FlightAware Approximate
01:50AM 16.7001 -69.2082 172° South  Level FlightAware Approximate
01:51AM 16.5623 -69.1868 172° South  Level FlightAware Approximate
01:52AM 16.4244 -69.1655 172° South  Level FlightAware Approximate
01:53AM 16.2866 -69.1442 172° South  Level FlightAware Approximate
01:54AM 16.1488 -69.1229 172° South  Level FlightAware Approximate
01:55AM 16.0110 -69.1017 172° South  Level FlightAware Approximate
01:56AM 15.8886 -69.0339 150° Southeast  Level FlightAware Approximate
01:57AM 15.7675 -68.9622 150° Southeast  Level FlightAware Approximate
01:58AM 15.6465 -68.8906 150° Southeast  Level FlightAware Approximate
01:59AM 15.5253 -68.8191 150° Southeast  Level FlightAware Approximate
02:00AM 15.4042 -68.7477 150° Southeast  Level FlightAware Approximate
02:01AM 15.2831 -68.6763 150° Southeast  Level FlightAware Approximate
02:02AM 15.1619 -68.6050 150° Southeast  Level FlightAware Approximate
02:03AM 15.0407 -68.5338 150° Southeast  Level FlightAware Approximate
02:04AM 14.9195 -68.4627 150° Southeast  Level FlightAware Approximate
02:05AM 14.7982 -68.3917 150° Southeast  Level FlightAware Approximate
02:06AM 14.6770 -68.3207 150° Southeast  Level FlightAware Approximate
02:07AM 14.5557 -68.2498 151° Southeast  Level FlightAware Approximate
02:08AM 14.4344 -68.1790 151° Southeast  Level FlightAware Approximate
02:09AM 14.3131 -68.1083 151° Southeast  Level FlightAware Approximate
02:10AM 14.1917 -68.0377 151° Southeast  Level FlightAware Approximate
02:11AM 14.0703 -67.9671 151° Southeast  Level FlightAware Approximate
02:12AM 13.9489 -67.8966 151° Southeast  Level FlightAware Approximate
02:13AM 13.8275 -67.8262 151° Southeast  Level FlightAware Approximate
02:14AM 13.7061 -67.7558 151° Southeast  Level FlightAware Approximate
02:15AM 13.5847 -67.6855 151° Southeast  Level FlightAware Approximate
02:16AM 13.4632 -67.6153 151° Southeast  Level FlightAware Approximate
02:17AM 13.3417 -67.5452 151° Southeast  Level FlightAware Approximate
02:18AM 13.2204 -67.4748 151° Southeast  Level FlightAware Approximate
02:19AM 13.0991 -67.4045 151° Southeast  Level FlightAware Approximate
02:20AM 12.9777 -67.3342 151° Southeast  Level FlightAware Approximate
02:21AM 12.8563 -67.2640 151° Southeast  Level FlightAware Approximate
02:22AM 12.7349 -67.1939 151° Southeast  Level FlightAware Approximate
02:23AM 12.6135 -67.1238 151° Southeast  Level FlightAware Approximate
02:24AM 12.4921 -67.0539 151° Southeast  Level FlightAware Approximate
02:25AM 12.3706 -66.9839 151° Southeast  Level FlightAware Approximate
02:26AM 12.2492 -66.9141 151° Southeast  Level FlightAware Approximate
02:27AM 12.1277 -66.8443 151° Southeast  Level FlightAware Approximate
02:28AM 12.0062 -66.7746 151° Southeast  Level FlightAware Approximate
02:29AM 11.8846 -66.7049 151° Southeast  Level FlightAware Approximate
02:30AM 11.7631 -66.6353 151° Southeast  Level FlightAware Approximate
02:31AM 11.6415 -66.5658 151° Southeast  Level FlightAware Approximate
02:32AM 11.5200 -66.4963 151° Southeast  Level FlightAware Approximate
02:33AM 11.3984 -66.4269 151° Southeast  Level FlightAware Approximate
02:34AM 11.2768 -66.3575 151° Southeast  Level FlightAware Approximate
02:35AM 11.1552 -66.2882 151° Southeast  Level FlightAware Approximate
02:36AM 11.0335 -66.2190 151° Southeast  Level FlightAware Approximate
02:37AM 10.9119 -66.1498 151° Southeast  Level FlightAware Approximate
02:38AM 10.7902 -66.0806 151° Southeast  Level FlightAware Approximate
02:39AM 10.6685 -66.0116 151° Southeast  Level FlightAware Approximate
02:40AM 10.5468 -65.9426 151° Southeast  Level FlightAware Approximate
02:41AM 10.4251 -65.8736 151° Southeast  Level FlightAware Approximate
02:42AM 10.3034 -65.8047 151° Southeast  Level FlightAware Approximate
02:43AM 10.1816 -65.7358 151° Southeast  Level FlightAware Approximate
02:44AM 10.0598 -65.6670 151° Southeast  Level FlightAware Approximate
02:45AM 9.9381 -65.5983 151° Southeast  Level FlightAware Approximate
02:46AM 9.8163 -65.5296 151° Southeast  Level FlightAware Approximate
02:47AM 9.6945 -65.4609 151° Southeast  Level FlightAware Approximate
02:48AM 9.5727 -65.3923 151° Southeast  Level FlightAware Approximate
02:49AM 9.4508 -65.3238 151° Southeast  Level FlightAware Approximate
02:50AM 9.3290 -65.2553 151° Southeast  Level FlightAware Approximate
02:51AM 9.2072 -65.1868 151° Southeast  Level FlightAware Approximate
02:52AM 9.0853 -65.1184 151° Southeast  Level FlightAware Approximate
02:53AM 8.9634 -65.0500 151° Southeast  Level FlightAware Approximate
02:54AM 8.8415 -64.9817 151° Southeast  Level FlightAware Approximate
02:55AM 8.7196 -64.9135 151° Southeast  Level FlightAware Approximate
02:56AM 8.5977 -64.8452 151° Southeast  Level FlightAware Approximate
02:57AM 8.4758 -64.7770 151° Southeast  Level FlightAware Approximate
02:58AM 8.3538 -64.7089 151° Southeast  Level FlightAware Approximate
02:59AM 8.2319 -64.6408 151° Southeast  Level FlightAware Approximate
03:00AM 8.1099 -64.5727 151° Southeast  Level FlightAware Approximate
03:01AM 7.9879 -64.5047 151° Southeast  Level FlightAware Approximate
03:02AM 7.8659 -64.4368 151° Southeast  Level FlightAware Approximate
03:03AM 7.7439 -64.3688 151° Southeast  Level FlightAware Approximate
03:04AM 7.6219 -64.3009 151° Southeast  Level FlightAware Approximate
03:05AM 7.5015 -64.2340 151° Southeast  Level FlightAware Approximate
03:06AM 7.3811 -64.1670 151° Southeast  Level FlightAware Approximate
03:07AM 7.2609 -64.1003 151° Southeast  Level FlightAware Approximate
03:08AM 7.1406 -64.0335 151° Southeast  Level FlightAware Approximate
03:09AM 7.0204 -63.9668 151° Southeast  Level FlightAware Approximate
03:10AM 6.9001 -63.9002 151° Southeast  Level FlightAware Approximate
03:11AM 6.7799 -63.8335 151° Southeast  Level FlightAware Approximate
03:12AM 6.6596 -63.7669 151° Southeast  Level FlightAware Approximate
03:13AM 6.5393 -63.7004 151° Southeast  Level FlightAware Approximate
03:14AM 6.4190 -63.6338 151° Southeast  Level FlightAware Approximate
03:15AM 6.2987 -63.5673 151° Southeast  Level FlightAware Approximate
03:16AM 6.1785 -63.5009 151° Southeast  Level FlightAware Approximate
03:17AM 6.0581 -63.4344 151° Southeast  Level FlightAware Approximate
03:18AM 5.9378 -63.3680 151° Southeast  Level FlightAware Approximate
03:19AM 5.8175 -63.3016 151° Southeast  Level FlightAware Approximate
03:20AM 5.6972 -63.2353 151° Southeast  Level FlightAware Approximate
03:21AM 5.5768 -63.1689 151° Southeast  Level FlightAware Approximate
03:22AM 5.4565 -63.1026 151° Southeast  Level FlightAware Approximate
03:23AM 5.3361 -63.0364 151° Southeast  Level FlightAware Approximate
03:24AM 5.2158 -62.9701 151° Southeast  Level FlightAware Approximate
03:25AM 5.0954 -62.9039 151° Southeast  Level FlightAware Approximate
03:26AM 4.9750 -62.8377 151° Southeast  Level FlightAware Approximate
03:27AM 4.8546 -62.7715 151° Southeast  Level FlightAware Approximate
03:28AM 4.7342 -62.7054 151° Southeast  Level FlightAware Approximate
03:29AM 4.6138 -62.6393 151° Southeast  Level FlightAware Approximate
03:30AM 4.4934 -62.5732 151° Southeast  Level FlightAware Approximate
03:31AM 4.3730 -62.5071 151° Southeast  Level FlightAware Approximate
03:32AM 4.2526 -62.4410 151° Southeast  Level FlightAware Approximate
03:33AM 4.1322 -62.3750 151° Southeast  Level FlightAware Approximate
03:34AM 4.0118 -62.3090 151° Southeast  Level FlightAware Approximate
03:35AM 3.8913 -62.2430 151° Southeast  Level FlightAware Approximate
03:36AM 3.7709 -62.1770 151° Southeast  Level FlightAware Approximate
03:37AM 3.6504 -62.1110 151° Southeast  Level FlightAware Approximate
03:38AM 3.5300 -62.0451 151° Southeast  Level FlightAware Approximate
03:39AM 3.4095 -61.9791 151° Southeast  Level FlightAware Approximate
03:40AM 3.2891 -61.9132 151° Southeast  Level FlightAware Approximate
03:41AM 3.1686 -61.8473 151° Southeast  Level FlightAware Approximate
03:42AM 3.0482 -61.7814 151° Southeast  Level FlightAware Approximate
03:43AM 2.9277 -61.7156 151° Southeast  Level FlightAware Approximate
03:44AM 2.8072 -61.6497 151° Southeast  Level FlightAware Approximate
03:45AM 2.6867 -61.5839 151° Southeast  Level FlightAware Approximate
03:46AM 2.5661 -61.5179 151° Southeast  Level FlightAware Approximate
03:47AM 2.4453 -61.4520 151° Southeast  Level FlightAware Approximate
03:48AM 2.3246 -61.3861 151° Southeast  Level FlightAware Approximate
03:49AM 2.2039 -61.3202 151° Southeast  Level FlightAware Approximate
03:50AM 2.0832 -61.2543 151° Southeast  Level FlightAware Approximate
03:51AM 1.9625 -61.1884 151° Southeast  Level FlightAware Approximate
03:52AM 1.8418 -61.1225 151° Southeast  Level FlightAware Approximate
03:53AM 1.7211 -61.0566 151° Southeast  Level FlightAware Approximate
03:54AM 1.6003 -60.9908 151° Southeast  Level FlightAware Approximate
03:55AM 1.4796 -60.9249 151° Southeast  Level FlightAware Approximate
03:56AM 1.3589 -60.8591 151° Southeast  Level FlightAware Approximate
03:57AM 1.2382 -60.7932 151° Southeast  Level FlightAware Approximate
03:58AM 1.1174 -60.7274 151° Southeast  Level FlightAware Approximate
03:59AM 0.9967 -60.6616 151° Southeast  Level FlightAware Approximate
04:00AM 0.8760 -60.5957 151° Southeast  Level FlightAware Approximate
04:01AM 0.7552 -60.5299 151° Southeast  Level FlightAware Approximate
04:02AM 0.6345 -60.4641 151° Southeast  Level FlightAware Approximate
04:03AM 0.5138 -60.3983 151° Southeast  Level FlightAware Approximate
04:04AM 0.3930 -60.3325 151° Southeast  Level FlightAware Approximate
04:05AM 0.2723 -60.2667 151° Southeast  Level FlightAware Approximate
04:06AM 0.1515 -60.2009 151° Southeast  Level FlightAware Approximate
04:07AM 0.0308 -60.1351 151° Southeast  Level FlightAware Approximate
04:08AM -0.0899 -60.0692 151° Southeast  Level FlightAware Approximate
04:09AM -0.2107 -60.0034 151° Southeast  Level FlightAware Approximate
04:10AM -0.3314 -59.9376 151° Southeast  Level FlightAware Approximate
04:11AM -0.4521 -59.8718 151° Southeast  Level FlightAware Approximate
04:12AM -0.5729 -59.8060 151° Southeast  Level FlightAware Approximate
04:13AM -0.6936 -59.7402 151° Southeast  Level FlightAware Approximate
04:14AM -0.8144 -59.6744 151° Southeast  Level FlightAware Approximate
04:15AM -0.9351 -59.6086 151° Southeast  Level FlightAware Approximate
04:16AM -1.0558 -59.5427 151° Southeast  Level FlightAware Approximate
04:17AM -1.1766 -59.4769 151° Southeast  Level FlightAware Approximate
04:18AM -1.2973 -59.4110 151° Southeast  Level FlightAware Approximate
04:19AM -1.4180 -59.3452 151° Southeast  Level FlightAware Approximate
04:20AM -1.5387 -59.2794 151° Southeast  Level FlightAware Approximate
04:21AM -1.6595 -59.2135 151° Southeast  Level FlightAware Approximate
04:22AM -1.7802 -59.1476 151° Southeast  Level FlightAware Approximate
04:23AM -1.9009 -59.0817 151° Southeast  Level FlightAware Approximate
04:24AM -2.0216 -59.0159 151° Southeast  Level FlightAware Approximate
04:25AM -2.1423 -58.9500 151° Southeast  Level FlightAware Approximate
04:26AM -2.2630 -58.8841 151° Southeast  Level FlightAware Approximate
04:27AM -2.3837 -58.8182 151° Southeast  Level FlightAware Approximate
04:28AM -2.5045 -58.7522 151° Southeast  Level FlightAware Approximate
04:29AM -2.6251 -58.6863 151° Southeast  Level FlightAware Approximate
04:30AM -2.7459 -58.6203 151° Southeast  Level FlightAware Approximate
04:31AM -2.8665 -58.5544 151° Southeast  Level FlightAware Approximate
04:32AM -2.9872 -58.4884 151° Southeast  Level FlightAware Approximate
04:33AM -3.1079 -58.4224 151° Southeast  Level FlightAware Approximate
04:34AM -3.2286 -58.3564 151° Southeast  Level FlightAware Approximate
04:35AM -3.3493 -58.2904 151° Southeast  Level FlightAware Approximate
04:36AM -3.4699 -58.2243 151° Southeast  Level FlightAware Approximate
04:37AM -3.5906 -58.1583 151° Southeast  Level FlightAware Approximate
04:38AM -3.7113 -58.0922 151° Southeast  Level FlightAware Approximate
04:39AM -3.8319 -58.0261 151° Southeast  Level FlightAware Approximate
04:40AM -3.9526 -57.9600 151° Southeast  Level FlightAware Approximate
04:41AM -4.0732 -57.8939 151° Southeast  Level FlightAware Approximate
04:42AM -4.1939 -57.8277 151° Southeast  Level FlightAware Approximate
04:43AM -4.3145 -57.7615 151° Southeast  Level FlightAware Approximate
04:44AM -4.4352 -57.6954 151° Southeast  Level FlightAware Approximate
04:45AM -4.5558 -57.6291 151° Southeast  Level FlightAware Approximate
04:46AM -4.6764 -57.5629 151° Southeast  Level FlightAware Approximate
04:47AM -4.7970 -57.4966 151° Southeast  Level FlightAware Approximate
04:48AM -4.9176 -57.4304 151° Southeast  Level FlightAware Approximate
04:49AM -5.0382 -57.3641 151° Southeast  Level FlightAware Approximate
04:50AM -5.1588 -57.2977 151° Southeast  Level FlightAware Approximate
04:51AM -5.2794 -57.2314 151° Southeast  Level FlightAware Approximate
04:52AM -5.4000 -57.1650 151° Southeast  Level FlightAware Approximate
04:53AM -5.5205 -57.0986 151° Southeast  Level FlightAware Approximate
04:54AM -5.6411 -57.0321 151° Southeast  Level FlightAware Approximate
04:55AM -5.7617 -56.9657 151° Southeast  Level FlightAware Approximate
04:56AM -5.8822 -56.8992 151° Southeast  Level FlightAware Approximate
04:57AM -6.0028 -56.8327 151° Southeast  Level FlightAware Approximate
04:58AM -6.1233 -56.7661 151° Southeast  Level FlightAware Approximate
04:59AM -6.2438 -56.6995 151° Southeast  Level FlightAware Approximate
05:00AM -6.3643 -56.6329 151° Southeast  Level FlightAware Approximate
05:01AM -6.4849 -56.5663 151° Southeast  Level FlightAware Approximate
05:02AM -6.6054 -56.4996 151° Southeast  Level FlightAware Approximate
05:03AM -6.7259 -56.4329 151° Southeast  Level FlightAware Approximate
05:04AM -6.8463 -56.3662 151° Southeast  Level FlightAware Approximate
05:05AM -6.9668 -56.2994 151° Southeast  Level FlightAware Approximate
05:06AM -7.0873 -56.2326 151° Southeast  Level FlightAware Approximate
05:07AM -7.2077 -56.1657 151° Southeast  Level FlightAware Approximate
05:08AM -7.3282 -56.0989 151° Southeast  Level FlightAware Approximate
05:09AM -7.4486 -56.0320 151° Southeast  Level FlightAware Approximate
05:10AM -7.5690 -55.9650 151° Southeast  Level FlightAware Approximate
05:11AM -7.6895 -55.8980 151° Southeast  Level FlightAware Approximate
05:12AM -7.8099 -55.8310 151° Southeast  Level FlightAware Approximate
05:13AM -7.9303 -55.7639 151° Southeast  Level FlightAware Approximate
05:14AM -8.0506 -55.6968 151° Southeast  Level FlightAware Approximate
05:15AM -8.1710 -55.6297 151° Southeast  Level FlightAware Approximate
05:16AM -8.2914 -55.5625 151° Southeast  Level FlightAware Approximate
05:17AM -8.4117 -55.4953 151° Southeast  Level FlightAware Approximate
05:18AM -8.5321 -55.4280 151° Southeast  Level FlightAware Approximate
05:19AM -8.6524 -55.3607 151° Southeast  Level FlightAware Approximate
05:20AM -8.7727 -55.2933 151° Southeast  Level FlightAware Approximate
05:21AM -8.8930 -55.2259 151° Southeast  Level FlightAware Approximate
05:22AM -9.0133 -55.1585 151° Southeast  Level FlightAware Approximate
05:23AM -9.1336 -55.0910 151° Southeast  Level FlightAware Approximate
05:24AM -9.2538 -55.0235 151° Southeast  Level FlightAware Approximate
05:25AM -9.3741 -54.9559 151° Southeast  Level FlightAware Approximate
05:26AM -9.4943 -54.8883 151° Southeast  Level FlightAware Approximate
05:27AM -9.6146 -54.8206 151° Southeast  Level FlightAware Approximate
05:28AM -9.7348 -54.7529 151° Southeast  Level FlightAware Approximate
05:29AM -9.8550 -54.6851 151° Southeast  Level FlightAware Approximate
05:30AM -9.9752 -54.6173 151° Southeast  Level FlightAware Approximate
05:31AM -10.0953 -54.5494 151° Southeast  Level FlightAware Approximate
05:32AM -10.2155 -54.4815 151° Southeast  Level FlightAware Approximate
05:33AM -10.3357 -54.4135 151° Southeast  Level FlightAware Approximate
05:34AM -10.4558 -54.3455 151° Southeast  Level FlightAware Approximate
05:35AM -10.5759 -54.2775 151° Southeast  Level FlightAware Approximate
05:36AM -10.6960 -54.2093 151° Southeast  Level FlightAware Approximate
05:37AM -10.8161 -54.1411 151° Southeast  Level FlightAware Approximate
05:38AM -10.9362 -54.0729 151° Southeast  Level FlightAware Approximate
05:39AM -11.0562 -54.0046 151° Southeast  Level FlightAware Approximate
05:40AM -11.1763 -53.9363 151° Southeast  Level FlightAware Approximate
05:41AM -11.2963 -53.8679 151° Southeast  Level FlightAware Approximate
05:42AM -11.4163 -53.7994 151° Southeast  Level FlightAware Approximate
05:43AM -11.5363 -53.7309 151° Southeast  Level FlightAware Approximate
05:44AM -11.6563 -53.6623 151° Southeast  Level FlightAware Approximate
05:45AM -11.7762 -53.5937 151° Southeast  Level FlightAware Approximate
05:46AM -11.8962 -53.5250 151° Southeast  Level FlightAware Approximate
05:47AM -12.0161 -53.4562 151° Southeast  Level FlightAware Approximate
05:48AM -12.1360 -53.3874 151° Southeast  Level FlightAware Approximate
05:49AM -12.2559 -53.3185 151° Southeast  Level FlightAware Approximate
05:50AM -12.3758 -53.2496 151° Southeast  Level FlightAware Approximate
05:51AM -12.4957 -53.1805 151° Southeast  Level FlightAware Approximate
05:52AM -12.6155 -53.1115 151° Southeast  Level FlightAware Approximate
05:53AM -12.7353 -53.0423 151° Southeast  Level FlightAware Approximate
05:54AM -12.8552 -52.9731 151° Southeast  Level FlightAware Approximate
05:55AM -12.9749 -52.9039 151° Southeast  Level FlightAware Approximate
05:56AM -13.0947 -52.8345 151° Southeast  Level FlightAware Approximate
05:57AM -13.2145 -52.7651 151° Southeast  Level FlightAware Approximate
05:58AM -13.3342 -52.6957 151° Southeast  Level FlightAware Approximate
05:59AM -13.4539 -52.6261 151° Southeast  Level FlightAware Approximate
06:00AM -13.5736 -52.5565 151° Southeast  Level FlightAware Approximate
06:01AM -13.6933 -52.4868 151° Southeast  Level FlightAware Approximate
06:02AM -13.8130 -52.4171 150° Southeast  Level FlightAware Approximate
06:03AM -13.9326 -52.3473 150° Southeast  Level FlightAware Approximate
06:04AM -14.0522 -52.2774 150° Southeast  Level FlightAware Approximate
06:05AM -14.1718 -52.2074 150° Southeast  Level FlightAware Approximate
06:06AM -14.2914 -52.1374 150° Southeast  Level FlightAware Approximate
06:07AM -14.4110 -52.0673 150° Southeast  Level FlightAware Approximate
06:08AM -14.5305 -51.9971 150° Southeast  Level FlightAware Approximate
06:09AM -14.6500 -51.9268 150° Southeast  Level FlightAware Approximate
06:10AM -14.7695 -51.8565 150° Southeast  Level FlightAware Approximate
06:11AM -14.8890 -51.7860 150° Southeast  Level FlightAware Approximate
06:12AM -15.0084 -51.7155 150° Southeast  Level FlightAware Approximate
06:13AM -15.1279 -51.6450 150° Southeast  Level FlightAware Approximate
06:14AM -15.2473 -51.5743 150° Southeast  Level FlightAware Approximate
06:15AM -15.3667 -51.5036 150° Southeast  Level FlightAware Approximate
06:16AM -15.4860 -51.4327 150° Southeast  Level FlightAware Approximate
06:17AM -15.6054 -51.3618 150° Southeast  Level FlightAware Approximate
06:18AM -15.7247 -51.2909 150° Southeast  Level FlightAware Approximate
06:19AM -15.8440 -51.2198 150° Southeast  Level FlightAware Approximate
06:20AM -15.9633 -51.1486 150° Southeast  Level FlightAware Approximate
06:21AM -16.0823 -51.0775 150° Southeast  Level FlightAware Approximate
06:22AM -16.2013 -51.0064 150° Southeast  Level FlightAware Approximate
06:23AM -16.3203 -50.9351 150° Southeast  Level FlightAware Approximate
06:24AM -16.4392 -50.8637 150° Southeast  Level FlightAware Approximate
06:25AM -16.5582 -50.7923 150° Southeast  Level FlightAware Approximate
06:26AM -16.6771 -50.7207 150° Southeast  Level FlightAware Approximate
06:27AM -16.7960 -50.6491 150° Southeast  Level FlightAware Approximate
06:28AM -16.9148 -50.5774 150° Southeast  Level FlightAware Approximate
06:29AM -17.0337 -50.5056 150° Southeast  Level FlightAware Approximate
06:30AM -17.1525 -50.4337 150° Southeast  Level FlightAware Approximate
06:31AM -17.2713 -50.3617 150° Southeast  Level FlightAware Approximate
06:32AM -17.3900 -50.2896 150° Southeast  Level FlightAware Approximate
06:33AM -17.5088 -50.2174 150° Southeast  Level FlightAware Approximate
06:34AM -17.6275 -50.1451 150° Southeast  Level FlightAware Approximate
06:35AM -17.7462 -50.0728 150° Southeast  Level FlightAware Approximate
06:36AM -17.8648 -50.0003 150° Southeast  Level FlightAware Approximate
06:37AM -17.9835 -49.9277 150° Southeast  Level FlightAware Approximate
06:38AM -18.1021 -49.8551 150° Southeast  Level FlightAware Approximate
06:39AM -18.2206 -49.7823 150° Southeast  Level FlightAware Approximate
06:40AM -18.3392 -49.7095 150° Southeast  Level FlightAware Approximate
06:41AM -18.4577 -49.6365 150° Southeast  Level FlightAware Approximate
06:42AM -18.5762 -49.5635 150° Southeast  Level FlightAware Approximate
06:43AM -18.6947 -49.4903 150° Southeast  Level FlightAware Approximate
06:44AM -18.8131 -49.4171 150° Southeast  Level FlightAware Approximate
06:44AM -18.5190 -50.2660 150° Southeast 480 552 35,000  Level FlightAware
06:44AM -18.5910 -50.2090 143° Southeast 481 554 35,000  Level FlightAware
06:45AM -18.6450 -50.1640 142° Southeast 481 554 35,000  Level FlightAware
06:46AM -18.6580 -50.1530 141° Southeast 482 555 35,000  Level FlightAware
06:47AM -18.8050 -50.0350 143° Southeast 481 554 35,000  Level FlightAware
06:47AM -18.8640 -49.9860 142° Southeast 481 554 35,000  Level FlightAware
06:48AM -18.9240 -49.9370 142° Southeast 481 554 35,000  Level FlightAware
06:49AM -18.9980 -49.8750 142° Southeast 481 554 35,000  Level FlightAware
06:49AM -19.0580 -49.8260 142° Southeast 481 554 35,000  Level FlightAware
06:50AM -19.2030 -49.7110 143° Southeast 478 550 35,000  Level FlightAware
06:51AM -19.2750 -49.6490 141° Southeast 477 549 35,000  Level FlightAware
06:51AM -19.3330 -49.5990 141° Southeast 477 549 35,000  Level FlightAware
06:52AM -19.4150 -49.5330 143° Southeast 477 549 35,000  Level FlightAware
06:53AM -19.5270 -49.4400 142° Southeast 478 550 35,000  Level FlightAware
06:54AM -19.5930 -49.3840 141° Southeast 479 551 35,000  Level FlightAware
06:55AM -19.6680 -49.3210 142° Southeast 479 551 35,000  Level FlightAware
06:55AM -19.7700 -49.2370 142° Southeast 477 549 35,000  Level FlightAware
06:56AM -19.8370 -49.1800 141° Southeast 477 549 35,000  Level FlightAware
06:57AM -19.9170 -49.1130 142° Southeast 476 548 35,000  Level FlightAware
06:58AM -19.9860 -49.0550 142° Southeast 476 548 35,000  Level FlightAware
06:58AM -20.0530 -48.9980 141° Southeast 476 548 35,000  Level FlightAware
06:59AM -20.1200 -48.9420 142° Southeast 476 548 35,000  Level FlightAware
07:00AM -20.1920 -48.8820 142° Southeast 475 547 35,000  Level FlightAware
07:00AM -20.2760 -48.8110 142° Southeast 475 547 35,000  Level FlightAware
07:01AM -20.3470 -48.7500 141° Southeast 477 549 35,000  Level FlightAware
07:02AM -20.4140 -48.6940 142° Southeast 477 549 35,000  Level FlightAware
07:02AM -20.4750 -48.6420 141° Southeast 478 550 35,000  Level FlightAware
07:03AM -20.5330 -48.5930 142° Southeast 479 551 35,000  Level FlightAware
07:05AM -20.7000 -48.4500 141° Southeast 483 556 35,000  Level FlightAware
07:05AM -20.7800 -48.3830 142° Southeast 482 555 35,000  Level FlightAware
07:06AM -20.8470 -48.3260 142° Southeast 482 555 35,000  Level FlightAware
07:07AM -20.9170 -48.2660 141° Southeast 483 556 35,000  Level FlightAware
07:07AM -20.9830 -48.2090 141° Southeast 483 556 35,000  Level FlightAware
07:08AM -21.0960 -48.1130 142° Southeast 483 556 35,000  Level FlightAware
07:09AM -21.1590 -48.0580 141° Southeast 485 558 35,000  Level FlightAware
07:10AM -21.2440 -47.9850 141° Southeast 485 558 35,000  Level FlightAware
07:10AM -21.3170 -47.9230 142° Southeast 485 558 35,000  Level FlightAware
07:11AM -21.4170 -47.8370 141° Southeast 478 550 35,000 -360 Level FlightAware
07:12AM -21.4970 -47.7670 141° Southeast 472 543 34,400 -1,080 Descending FlightAware
07:13AM -21.5640 -47.7100 142° Southeast 460 529 33,500 -1,380 Descending FlightAware
07:14AM -21.6540 -47.6320 141° Southeast 457 526 32,300 -1,320 Descending FlightAware
07:14AM -21.7300 -47.5660 141° Southeast 453 521 31,300 -1,380 Descending FlightAware
07:15AM -21.7940 -47.5100 141° Southeast 444 511 30,400 -1,440 Descending FlightAware
07:16AM -21.8660 -47.4480 141° Southeast 445 512 29,300 -1,380 Descending FlightAware
07:16AM -21.9320 -47.3900 141° Southeast 441 507 28,500 -1,140 Descending FlightAware
07:17AM -21.9980 -47.3420 146° Southeast 439 505 27,800 -1,140 Descending FlightAware
07:18AM -22.0840 -47.3030 157° South 431 496 26,900 -1,080 Descending FlightAware
07:19AM -22.1590 -47.2730 160° South 418 481 26,300 -1,020 Descending FlightAware
07:19AM -22.2400 -47.2400 159° South 412 474 25,500 -1,380 Descending FlightAware
07:20AM -22.3110 -47.2100 159° South 411 473 24,400 -1,740 Descending FlightAware
07:21AM -22.3840 -47.1800 159° South 397 457 23,200 -1,800 Descending FlightAware
07:21AM -22.4600 -47.1480 159° South 387 445 21,900 -1,740 Descending FlightAware
07:22AM -22.5280 -47.1180 158° South 378 435 20,800 -1,680 Descending FlightAware
07:23AM -22.6020 -47.0870 159° South 378 435 19,600 -1,680 Descending FlightAware
07:23AM -22.6680 -47.0590 159° South 364 419 18,500 -1,680 Descending FlightAware
07:24AM -22.7310 -47.0330 159° South 367 422 17,400 -1,680 Descending FlightAware
07:25AM -22.8010 -47.0040 159° South 360 414 16,200 -1,560 Descending FlightAware
07:26AM -22.8640 -46.9770 158° South 346 398 15,200 -1,680 Descending FlightAware
07:26AM -22.9240 -46.9520 159° South 344 396 14,000 -1,860 Descending FlightAware
07:27AM -22.9940 -46.9230 159° South 343 395 12,600 -1,860 Descending FlightAware
07:28AM -23.0530 -46.8980 159° South 348 400 11,400 -1,800 Descending FlightAware
07:28AM -23.1220 -46.8690 159° South 343 395 10,100 -1,200 Descending FlightAware
07:29AM -23.1570 -46.8540 158° South 315 362 10,000 -120 Descending FlightAware
07:29AM -23.1960 -46.8370 158° South 281 323 10,000 -420 Level FlightAware
07:30AM -23.2320 -46.8220 159° South 264 304 9,600 -900 Descending FlightAware
07:30AM -23.2440 -46.8170 159° South 257 296 9,400 -900 Descending FlightAware
07:30AM -23.2770 -46.8030 159° South 244 281 9,000 -960 Descending FlightAware
07:31AM -23.2920 -46.7970 160° South 227 261 8,700 -900 Descending FlightAware
07:31AM -23.3160 -46.7870 159° South 212 244 8,400 -660 Descending FlightAware
07:32AM -23.3440 -46.7750 159° South 193 222 8,100 -840 Descending FlightAware
07:32AM -23.3690 -46.7640 158° South 183 211 7,600 -1,200 Descending FlightAware
07:33AM -23.3860 -46.7500 143° Southeast 193 222 7,000 -1,500 Descending FlightAware
07:33AM -23.3970 -46.7400 140° Southeast 194 223 6,600 -1,380 Descending FlightAware
07:33AM -23.4140 -46.7240 139° Southeast 194 223 6,100 -1,200 Descending FlightAware
07:34AM -23.4340 -46.7050 139° Southeast 194 223 5,500 -1,080 Descending FlightAware
07:34AM -23.4440 -46.6950 137° Southeast 184 212 5,300 -840 Descending FlightAware
07:34AM -23.4520 -46.6840 128° Southeast 184 212 5,100 -1,080 Descending FlightAware
07:35AM -23.4610 -46.6620 114° Southeast 189 217 4,600 -660 Descending FlightAware
07:35AM -23.4720 -46.6370 116° Southeast 174 200 4,500 -180 Descending FlightAware
07:35AM -23.4750 -46.6240 104° East 179 206 4,500 -300 Level FlightAware
07:36AM -23.4700 -46.6020 76° East 178 205 4,300 -780 Descending FlightAware
07:36AM -23.4630 -46.5760 74° East 177 204 3,800 -900 Descending FlightAware
07:37AM -23.4560 -46.5510 73° East 159 183 3,400 -780 Descending FlightAware
07:37AM -23.4510 -46.5320 74° East 160 184 3,100 -900 Descending FlightAware
07:38AM -23.4440 -46.5080 72° East 163 188 2,600 -900 Descending FlightAware
07:38AM -23.4390 -46.4860 76° East 159 183 2,200 -840 Descending FlightAware